sensor_id;sensor_type;location;lat;lon;timestamp;temperature;humidity
3944;DHT22;1986;52.546;13.428;2023-12-14T00:01:16;7.90;99.90
3944;DHT22;1986;52.546;13.428;2023-12-14T00:03:44;7.90;99.90
3944;DHT22;1986;52.546;13.428;2023-12-14T00:06:14;7.80;99.90
3944;DHT22;1986;52.546;13.428;2023-12-14T00:08:41;7.80;99.90
3944;DHT22;1986;52.546;13.428;2023-12-14T00:11:09;7.80;99.90
3944;DHT22;1986;52.546;13.428;2023-12-14T00:13:36;7.80;99.90
3944;DHT22;1986;52.546;13.428;2023-12-14T00:16:03;7.80;99.90
3944;DHT22;1986;52.546;13.428;2023-12-14T00:18:32;7.80;99.90
3944;DHT22;1986;52.546;13.428;2023-12-14T00:20:59;7.80;99.90
3944;DHT22;1986;52.546;13.428;2023-12-14T00:23:28;7.80;99.90
3944;DHT22;1986;52.546;13.428;2023-12-14T00:25:57;7.80;99.90
3944;DHT22;1986;52.546;13.428;2023-12-14T00:28:23;7.80;99.90
3944;DHT22;1986;52.546;13.428;2023-12-14T00:30:52;7.80;99.90
3944;DHT22;1986;52.546;13.428;2023-12-14T00:33:19;7.80;99.90
3944;DHT22;1986;52.546;13.428;2023-12-14T00:35:48;7.80;99.90
3944;DHT22;1986;52.546;13.428;2023-12-14T00:38:15;7.80;99.90
3944;DHT22;1986;52.546;13.428;2023-12-14T00:40:42;7.80;99.90
3944;DHT22;1986;52.546;13.428;2023-12-14T00:43:09;7.80;99.90
3944;DHT22;1986;52.546;13.428;2023-12-14T00:45:36;7.80;99.90
3944;DHT22;1986;52.546;13.428;2023-12-14T00:48:03;7.80;99.90
3944;DHT22;1986;52.546;13.428;2023-12-14T00:50:30;7.90;99.90
3944;DHT22;1986;52.546;13.428;2023-12-14T00:52:59;8.00;99.90
3944;DHT22;1986;52.546;13.428;2023-12-14T00:55:26;8.00;99.90
3944;DHT22;1986;52.546;13.428;2023-12-14T00:57:55;7.80;99.90
3944;DHT22;1986;52.546;13.428;2023-12-14T01:00:25;7.70;99.90
3944;DHT22;1986;52.546;13.428;2023-12-14T01:02:51;7.60;99.90
3944;DHT22;1986;52.546;13.428;2023-12-14T01:05:18;7.70;99.90
3944;DHT22;1986;52.546;13.428;2023-12-14T01:07:45;7.60;99.90
3944;DHT22;1986;52.546;13.428;2023-12-14T01:10:14;7.60;99.90
3944;DHT22;1986;52.546;13.428;2023-12-14T01:12:41;7.60;99.90
3944;DHT22;1986;52.546;13.428;2023-12-14T01:15:09;7.70;99.90
3944;DHT22;1986;52.546;13.428;2023-12-14T01:17:39;7.80;99.90
3944;DHT22;1986;52.546;13.428;2023-12-14T01:20:07;7.80;99.90
3944;DHT22;1986;52.546;13.428;2023-12-14T01:22:36;7.80;99.90
3944;DHT22;1986;52.546;13.428;2023-12-14T01:25:04;7.60;99.90
3944;DHT22;1986;52.546;13.428;2023-12-14T01:27:32;7.50;99.90
3944;DHT22;1986;52.546;13.428;2023-12-14T01:30:00;7.50;99.90
3944;DHT22;1986;52.546;13.428;2023-12-14T01:32:28;7.40;99.90
3944;DHT22;1986;52.546;13.428;2023-12-14T01:35:03;7.40;99.90
3944;DHT22;1986;52.546;13.428;2023-12-14T01:37:46;7.30;99.90
3944;DHT22;1986;52.546;13.428;2023-12-14T01:40:19;7.40;99.90
3944;DHT22;1986;52.546;13.428;2023-12-14T01:42:49;7.40;99.90
3944;DHT22;1986;52.546;13.428;2023-12-14T01:45:16;7.30;99.90
3944;DHT22;1986;52.546;13.428;2023-12-14T01:47:44;7.40;99.90
3944;DHT22;1986;52.546;13.428;2023-12-14T01:50:12;7.30;99.90
3944;DHT22;1986;52.546;13.428;2023-12-14T01:52:40;7.20;99.90
3944;DHT22;1986;52.546;13.428;2023-12-14T01:55:07;7.30;99.90
3944;DHT22;1986;52.546;13.428;2023-12-14T01:57:37;7.20;99.90
3944;DHT22;1986;52.546;13.428;2023-12-14T02:00:07;7.10;99.90
3944;DHT22;1986;52.546;13.428;2023-12-14T02:02:40;7.10;99.90
3944;DHT22;1986;52.546;13.428;2023-12-14T02:05:07;7.10;99.90
3944;DHT22;1986;52.546;13.428;2023-12-14T02:07:33;7.00;99.90
3944;DHT22;1986;52.546;13.428;2023-12-14T02:10:01;7.10;99.90
3944;DHT22;1986;52.546;13.428;2023-12-14T02:12:29;7.20;99.90
3944;DHT22;1986;52.546;13.428;2023-12-14T02:14:56;7.20;99.90
3944;DHT22;1986;52.546;13.428;2023-12-14T02:17:24;7.10;99.90
3944;DHT22;1986;52.546;13.428;2023-12-14T02:19:51;7.10;99.90
3944;DHT22;1986;52.546;13.428;2023-12-14T02:22:18;7.20;99.90
3944;DHT22;1986;52.546;13.428;2023-12-14T02:24:46;7.20;99.90
3944;DHT22;1986;52.546;13.428;2023-12-14T02:27:13;7.20;99.90
3944;DHT22;1986;52.546;13.428;2023-12-14T02:29:40;7.20;99.90
3944;DHT22;1986;52.546;13.428;2023-12-14T02:32:07;7.20;99.90
3944;DHT22;1986;52.546;13.428;2023-12-14T02:34:34;7.20;99.90
3944;DHT22;1986;52.546;13.428;2023-12-14T02:37:04;7.20;99.90
3944;DHT22;1986;52.546;13.428;2023-12-14T02:39:31;7.10;99.90
3944;DHT22;1986;52.546;13.428;2023-12-14T02:42:00;7.20;99.90
3944;DHT22;1986;52.546;13.428;2023-12-14T02:44:30;7.20;99.90
3944;DHT22;1986;52.546;13.428;2023-12-14T02:46:59;7.20;99.90
3944;DHT22;1986;52.546;13.428;2023-12-14T02:49:26;7.20;99.90
3944;DHT22;1986;52.546;13.428;2023-12-14T02:51:53;7.20;99.90
3944;DHT22;1986;52.546;13.428;2023-12-14T02:54:20;7.10;99.90
3944;DHT22;1986;52.546;13.428;2023-12-14T02:56:47;7.10;99.90
3944;DHT22;1986;52.546;13.428;2023-12-14T02:59:15;7.10;99.90
3944;DHT22;1986;52.546;13.428;2023-12-14T03:01:42;7.20;99.90
3944;DHT22;1986;52.546;13.428;2023-12-14T03:04:09;7.10;99.90
3944;DHT22;1986;52.546;13.428;2023-12-14T03:06:36;7.10;99.90
3944;DHT22;1986;52.546;13.428;2023-12-14T03:09:04;7.10;99.90
3944;DHT22;1986;52.546;13.428;2023-12-14T03:11:34;7.20;99.90
3944;DHT22;1986;52.546;13.428;2023-12-14T03:14:01;7.30;99.90
3944;DHT22;1986;52.546;13.428;2023-12-14T03:16:29;7.30;99.90
3944;DHT22;1986;52.546;13.428;2023-12-14T03:18:56;7.40;99.90
3944;DHT22;1986;52.546;13.428;2023-12-14T03:21:23;7.30;99.90
3944;DHT22;1986;52.546;13.428;2023-12-14T03:23:51;7.20;99.90
3944;DHT22;1986;52.546;13.428;2023-12-14T03:26:18;7.40;99.90
3944;DHT22;1986;52.546;13.428;2023-12-14T03:28:45;7.30;99.90
3944;DHT22;1986;52.546;13.428;2023-12-14T03:31:12;7.20;99.90
3944;DHT22;1986;52.546;13.428;2023-12-14T03:33:43;7.20;99.90
3944;DHT22;1986;52.546;13.428;2023-12-14T03:36:10;7.20;99.90
3944;DHT22;1986;52.546;13.428;2023-12-14T03:38:37;7.20;99.90
3944;DHT22;1986;52.546;13.428;2023-12-14T03:41:04;7.20;99.90
3944;DHT22;1986;52.546;13.428;2023-12-14T03:43:34;7.10;99.90
3944;DHT22;1986;52.546;13.428;2023-12-14T03:46:01;7.10;99.90
3944;DHT22;1986;52.546;13.428;2023-12-14T03:48:36;7.20;99.90
3944;DHT22;1986;52.546;13.428;2023-12-14T03:51:04;7.20;99.90
3944;DHT22;1986;52.546;13.428;2023-12-14T03:53:32;7.20;99.90
3944;DHT22;1986;52.546;13.428;2023-12-14T03:55:58;7.20;99.90
3944;DHT22;1986;52.546;13.428;2023-12-14T03:58:25;7.10;99.90
3944;DHT22;1986;52.546;13.428;2023-12-14T04:00:52;7.10;99.90
3944;DHT22;1986;52.546;13.428;2023-12-14T04:03:19;7.10;99.90
3944;DHT22;1986;52.546;13.428;2023-12-14T04:05:46;7.10;99.90
3944;DHT22;1986;52.546;13.428;2023-12-14T04:08:15;7.20;99.90
3944;DHT22;1986;52.546;13.428;2023-12-14T04:10:41;7.20;99.90
3944;DHT22;1986;52.546;13.428;2023-12-14T04:13:08;7.20;99.90
3944;DHT22;1986;52.546;13.428;2023-12-14T04:15:35;7.20;99.90
3944;DHT22;1986;52.546;13.428;2023-12-14T04:18:02;7.10;99.90
3944;DHT22;1986;52.546;13.428;2023-12-14T04:20:29;7.10;99.90
3944;DHT22;1986;52.546;13.428;2023-12-14T04:22:56;7.10;99.90
3944;DHT22;1986;52.546;13.428;2023-12-14T04:25:24;7.10;99.90
3944;DHT22;1986;52.546;13.428;2023-12-14T04:27:51;7.10;99.90
3944;DHT22;1986;52.546;13.428;2023-12-14T04:30:18;7.20;99.90
3944;DHT22;1986;52.546;13.428;2023-12-14T04:32:45;7.30;99.90
3944;DHT22;1986;52.546;13.428;2023-12-14T04:35:13;7.30;99.90
3944;DHT22;1986;52.546;13.428;2023-12-14T04:37:40;7.30;99.90
3944;DHT22;1986;52.546;13.428;2023-12-14T04:40:08;7.20;99.90
3944;DHT22;1986;52.546;13.428;2023-12-14T04:42:37;7.20;99.90
3944;DHT22;1986;52.546;13.428;2023-12-14T04:45:05;7.10;99.90
3944;DHT22;1986;52.546;13.428;2023-12-14T04:47:34;7.10;99.90
3944;DHT22;1986;52.546;13.428;2023-12-14T04:50:01;7.10;99.90
3944;DHT22;1986;52.546;13.428;2023-12-14T04:52:28;7.10;99.90
3944;DHT22;1986;52.546;13.428;2023-12-14T04:54:56;7.20;99.90
3944;DHT22;1986;52.546;13.428;2023-12-14T04:57:25;7.20;99.90
3944;DHT22;1986;52.546;13.428;2023-12-14T04:59:53;7.20;99.90
3944;DHT22;1986;52.546;13.428;2023-12-14T05:02:20;7.20;99.90
3944;DHT22;1986;52.546;13.428;2023-12-14T05:04:47;7.20;99.90
3944;DHT22;1986;52.546;13.428;2023-12-14T05:07:15;7.20;99.90
3944;DHT22;1986;52.546;13.428;2023-12-14T05:09:42;7.30;99.90
3944;DHT22;1986;52.546;13.428;2023-12-14T05:12:11;7.30;99.90
3944;DHT22;1986;52.546;13.428;2023-12-14T05:14:39;7.20;99.90
3944;DHT22;1986;52.546;13.428;2023-12-14T05:17:07;7.30;99.90
3944;DHT22;1986;52.546;13.428;2023-12-14T05:19:36;7.30;99.90
3944;DHT22;1986;52.546;13.428;2023-12-14T05:22:03;7.30;99.90
3944;DHT22;1986;52.546;13.428;2023-12-14T05:24:30;7.40;99.90
3944;DHT22;1986;52.546;13.428;2023-12-14T05:26:57;7.40;99.90
3944;DHT22;1986;52.546;13.428;2023-12-14T05:29:24;7.40;99.90
3944;DHT22;1986;52.546;13.428;2023-12-14T05:31:53;7.50;99.90
3944;DHT22;1986;52.546;13.428;2023-12-14T05:34:23;7.60;99.90
3944;DHT22;1986;52.546;13.428;2023-12-14T05:36:52;7.60;99.90
3944;DHT22;1986;52.546;13.428;2023-12-14T05:39:19;7.50;99.90
3944;DHT22;1986;52.546;13.428;2023-12-14T05:41:46;7.50;99.90
3944;DHT22;1986;52.546;13.428;2023-12-14T05:44:15;7.40;99.90
3944;DHT22;1986;52.546;13.428;2023-12-14T05:46:42;7.30;99.90
3944;DHT22;1986;52.546;13.428;2023-12-14T05:49:09;7.20;99.90
3944;DHT22;1986;52.546;13.428;2023-12-14T05:51:38;7.20;99.90
3944;DHT22;1986;52.546;13.428;2023-12-14T05:54:05;7.20;99.90
3944;DHT22;1986;52.546;13.428;2023-12-14T05:56:32;7.20;99.90
3944;DHT22;1986;52.546;13.428;2023-12-14T05:59:01;7.20;99.90
3944;DHT22;1986;52.546;13.428;2023-12-14T06:01:28;7.20;99.90
3944;DHT22;1986;52.546;13.428;2023-12-14T06:03:54;7.30;99.90
3944;DHT22;1986;52.546;13.428;2023-12-14T06:06:21;7.20;99.90
3944;DHT22;1986;52.546;13.428;2023-12-14T06:08:50;7.20;99.90
3944;DHT22;1986;52.546;13.428;2023-12-14T06:11:18;7.10;99.90
3944;DHT22;1986;52.546;13.428;2023-12-14T06:13:45;7.20;99.90
3944;DHT22;1986;52.546;13.428;2023-12-14T06:16:12;7.20;99.90
3944;DHT22;1986;52.546;13.428;2023-12-14T06:18:42;7.20;99.90
3944;DHT22;1986;52.546;13.428;2023-12-14T06:21:18;7.20;99.90
3944;DHT22;1986;52.546;13.428;2023-12-14T06:23:49;7.30;99.90
3944;DHT22;1986;52.546;13.428;2023-12-14T06:26:16;7.20;99.90
3944;DHT22;1986;52.546;13.428;2023-12-14T06:28:46;7.20;99.90
3944;DHT22;1986;52.546;13.428;2023-12-14T06:31:13;7.20;99.90
3944;DHT22;1986;52.546;13.428;2023-12-14T06:33:40;7.20;99.90
3944;DHT22;1986;52.546;13.428;2023-12-14T06:36:09;7.20;99.90
3944;DHT22;1986;52.546;13.428;2023-12-14T06:38:38;7.20;99.90
3944;DHT22;1986;52.546;13.428;2023-12-14T06:41:07;7.10;99.90
3944;DHT22;1986;52.546;13.428;2023-12-14T06:43:34;7.10;99.90
3944;DHT22;1986;52.546;13.428;2023-12-14T06:46:03;7.20;99.90
3944;DHT22;1986;52.546;13.428;2023-12-14T06:48:30;7.10;99.90
3944;DHT22;1986;52.546;13.428;2023-12-14T06:50:57;7.10;99.90
3944;DHT22;1986;52.546;13.428;2023-12-14T06:53:24;7.20;99.90
3944;DHT22;1986;52.546;13.428;2023-12-14T06:55:51;7.10;99.90
3944;DHT22;1986;52.546;13.428;2023-12-14T06:58:19;7.20;99.90
3944;DHT22;1986;52.546;13.428;2023-12-14T07:00:46;7.10;99.90
3944;DHT22;1986;52.546;13.428;2023-12-14T07:03:14;7.00;99.90
3944;DHT22;1986;52.546;13.428;2023-12-14T07:05:41;7.00;99.90
3944;DHT22;1986;52.546;13.428;2023-12-14T07:08:08;7.00;99.90
3944;DHT22;1986;52.546;13.428;2023-12-14T07:10:35;7.10;99.90
3944;DHT22;1986;52.546;13.428;2023-12-14T07:13:02;7.30;99.90
3944;DHT22;1986;52.546;13.428;2023-12-14T07:15:33;7.30;99.90
3944;DHT22;1986;52.546;13.428;2023-12-14T07:18:00;7.20;99.90
3944;DHT22;1986;52.546;13.428;2023-12-14T07:20:27;7.20;99.90
3944;DHT22;1986;52.546;13.428;2023-12-14T07:22:55;7.20;99.90
3944;DHT22;1986;52.546;13.428;2023-12-14T07:25:21;7.20;99.90
3944;DHT22;1986;52.546;13.428;2023-12-14T07:27:48;7.10;99.90
3944;DHT22;1986;52.546;13.428;2023-12-14T07:30:18;7.20;99.90
3944;DHT22;1986;52.546;13.428;2023-12-14T07:32:47;7.20;99.90
3944;DHT22;1986;52.546;13.428;2023-12-14T07:35:17;7.30;99.90
3944;DHT22;1986;52.546;13.428;2023-12-14T07:37:43;7.40;99.90
3944;DHT22;1986;52.546;13.428;2023-12-14T07:40:13;7.50;99.90
3944;DHT22;1986;52.546;13.428;2023-12-14T07:42:43;7.40;99.90
3944;DHT22;1986;52.546;13.428;2023-12-14T07:45:10;7.30;99.90
3944;DHT22;1986;52.546;13.428;2023-12-14T07:47:37;7.10;99.90
3944;DHT22;1986;52.546;13.428;2023-12-14T07:50:07;7.00;99.90
3944;DHT22;1986;52.546;13.428;2023-12-14T07:52:34;7.00;99.90
3944;DHT22;1986;52.546;13.428;2023-12-14T07:55:01;7.00;99.90
3944;DHT22;1986;52.546;13.428;2023-12-14T07:57:28;7.10;99.90
3944;DHT22;1986;52.546;13.428;2023-12-14T07:59:55;7.10;99.90
3944;DHT22;1986;52.546;13.428;2023-12-14T08:02:25;7.00;99.90
3944;DHT22;1986;52.546;13.428;2023-12-14T08:04:52;7.00;99.90
3944;DHT22;1986;52.546;13.428;2023-12-14T08:07:20;7.00;99.90
3944;DHT22;1986;52.546;13.428;2023-12-14T08:09:48;7.00;99.90
3944;DHT22;1986;52.546;13.428;2023-12-14T08:12:15;6.90;99.90
3944;DHT22;1986;52.546;13.428;2023-12-14T08:14:41;7.00;99.90
3944;DHT22;1986;52.546;13.428;2023-12-14T08:17:09;7.00;99.90
3944;DHT22;1986;52.546;13.428;2023-12-14T08:19:36;7.10;99.90
3944;DHT22;1986;52.546;13.428;2023-12-14T08:22:03;7.00;99.90
3944;DHT22;1986;52.546;13.428;2023-12-14T08:24:34;7.10;99.90
3944;DHT22;1986;52.546;13.428;2023-12-14T08:27:03;7.00;99.90
3944;DHT22;1986;52.546;13.428;2023-12-14T08:29:30;7.10;99.90
3944;DHT22;1986;52.546;13.428;2023-12-14T08:31:57;7.10;99.90
3944;DHT22;1986;52.546;13.428;2023-12-14T08:34:27;7.20;99.90
3944;DHT22;1986;52.546;13.428;2023-12-14T08:36:54;7.30;99.90
3944;DHT22;1986;52.546;13.428;2023-12-14T08:39:21;7.30;99.90
3944;DHT22;1986;52.546;13.428;2023-12-14T08:41:52;7.20;99.90
3944;DHT22;1986;52.546;13.428;2023-12-14T08:44:19;7.10;99.90
3944;DHT22;1986;52.546;13.428;2023-12-14T08:46:49;7.00;99.90
3944;DHT22;1986;52.546;13.428;2023-12-14T08:49:20;7.00;99.90
3944;DHT22;1986;52.546;13.428;2023-12-14T08:51:58;7.00;99.90
3944;DHT22;1986;52.546;13.428;2023-12-14T08:54:29;7.00;99.90
3944;DHT22;1986;52.546;13.428;2023-12-14T08:56:59;7.00;99.90
3944;DHT22;1986;52.546;13.428;2023-12-14T08:59:27;7.10;99.90
3944;DHT22;1986;52.546;13.428;2023-12-14T09:01:54;7.00;99.90
3944;DHT22;1986;52.546;13.428;2023-12-14T09:04:21;7.00;99.90
3944;DHT22;1986;52.546;13.428;2023-12-14T09:06:52;7.00;99.90
3944;DHT22;1986;52.546;13.428;2023-12-14T09:09:24;7.00;99.90
3944;DHT22;1986;52.546;13.428;2023-12-14T09:11:53;7.00;99.90
3944;DHT22;1986;52.546;13.428;2023-12-14T09:14:26;7.00;99.90
3944;DHT22;1986;52.546;13.428;2023-12-14T09:16:57;6.90;99.90
3944;DHT22;1986;52.546;13.428;2023-12-14T09:19:24;6.90;99.90
3944;DHT22;1986;52.546;13.428;2023-12-14T09:22:14;6.90;99.90
3944;DHT22;1986;52.546;13.428;2023-12-14T09:24:42;6.90;99.90
3944;DHT22;1986;52.546;13.428;2023-12-14T09:27:09;6.90;99.90
3944;DHT22;1986;52.546;13.428;2023-12-14T09:29:40;7.00;99.90
3944;DHT22;1986;52.546;13.428;2023-12-14T09:32:08;7.00;99.90
3944;DHT22;1986;52.546;13.428;2023-12-14T09:34:36;7.10;99.90
3944;DHT22;1986;52.546;13.428;2023-12-14T09:37:03;7.00;99.90
3944;DHT22;1986;52.546;13.428;2023-12-14T09:39:30;7.10;99.90
3944;DHT22;1986;52.546;13.428;2023-12-14T09:42:02;7.20;99.90
3944;DHT22;1986;52.546;13.428;2023-12-14T09:44:30;7.20;99.90
3944;DHT22;1986;52.546;13.428;2023-12-14T09:47:03;7.10;99.90
3944;DHT22;1986;52.546;13.428;2023-12-14T09:49:30;7.00;99.90
3944;DHT22;1986;52.546;13.428;2023-12-14T09:51:59;7.00;99.90
3944;DHT22;1986;52.546;13.428;2023-12-14T09:54:28;6.80;99.90
3944;DHT22;1986;52.546;13.428;2023-12-14T09:56:59;6.80;99.90
3944;DHT22;1986;52.546;13.428;2023-12-14T09:59:28;6.80;99.90
3944;DHT22;1986;52.546;13.428;2023-12-14T10:02:10;6.70;99.90
3944;DHT22;1986;52.546;13.428;2023-12-14T10:04:38;6.70;99.90
3944;DHT22;1986;52.546;13.428;2023-12-14T10:07:05;6.60;99.90
3944;DHT22;1986;52.546;13.428;2023-12-14T10:09:33;6.70;99.90
3944;DHT22;1986;52.546;13.428;2023-12-14T10:12:05;6.70;99.90
3944;DHT22;1986;52.546;13.428;2023-12-14T10:14:32;6.70;99.90
3944;DHT22;1986;52.546;13.428;2023-12-14T10:17:16;6.70;99.90
3944;DHT22;1986;52.546;13.428;2023-12-14T10:19:44;6.70;99.90
3944;DHT22;1986;52.546;13.428;2023-12-14T10:22:13;6.70;99.90
3944;DHT22;1986;52.546;13.428;2023-12-14T10:24:43;6.60;99.90
3944;DHT22;1986;52.546;13.428;2023-12-14T10:27:11;6.60;99.90
3944;DHT22;1986;52.546;13.428;2023-12-14T10:29:38;6.70;99.90
3944;DHT22;1986;52.546;13.428;2023-12-14T10:32:07;6.60;99.90
3944;DHT22;1986;52.546;13.428;2023-12-14T10:34:36;6.60;99.90
3944;DHT22;1986;52.546;13.428;2023-12-14T10:37:06;6.50;99.90
3944;DHT22;1986;52.546;13.428;2023-12-14T10:39:34;6.50;99.90
3944;DHT22;1986;52.546;13.428;2023-12-14T10:42:04;6.50;99.90
3944;DHT22;1986;52.546;13.428;2023-12-14T10:44:36;6.50;99.90
3944;DHT22;1986;52.546;13.428;2023-12-14T10:47:04;6.40;99.90
3944;DHT22;1986;52.546;13.428;2023-12-14T10:49:38;6.40;99.90
3944;DHT22;1986;52.546;13.428;2023-12-14T10:52:05;6.40;99.90
3944;DHT22;1986;52.546;13.428;2023-12-14T10:54:38;6.40;99.90
3944;DHT22;1986;52.546;13.428;2023-12-14T10:57:05;6.40;99.90
3944;DHT22;1986;52.546;13.428;2023-12-14T10:59:34;6.40;99.90
3944;DHT22;1986;52.546;13.428;2023-12-14T11:02:07;6.50;99.90
3944;DHT22;1986;52.546;13.428;2023-12-14T11:04:55;6.50;99.90
3944;DHT22;1986;52.546;13.428;2023-12-14T11:07:54;6.40;99.90
3944;DHT22;1986;52.546;13.428;2023-12-14T11:10:26;6.40;99.90
3944;DHT22;1986;52.546;13.428;2023-12-14T11:13:00;6.30;99.90
3944;DHT22;1986;52.546;13.428;2023-12-14T11:15:28;6.30;99.90
3944;DHT22;1986;52.546;13.428;2023-12-14T11:18:21;6.30;99.90
3944;DHT22;1986;52.546;13.428;2023-12-14T11:20:51;6.30;99.90
3944;DHT22;1986;52.546;13.428;2023-12-14T11:23:29;6.30;99.90
3944;DHT22;1986;52.546;13.428;2023-12-14T11:25:58;6.30;99.90
3944;DHT22;1986;52.546;13.428;2023-12-14T11:28:25;6.40;99.90
3944;DHT22;1986;52.546;13.428;2023-12-14T11:30:54;6.40;99.90
3944;DHT22;1986;52.546;13.428;2023-12-14T11:33:24;6.40;99.90
3944;DHT22;1986;52.546;13.428;2023-12-14T11:35:54;6.60;99.90
3944;DHT22;1986;52.546;13.428;2023-12-14T11:38:21;6.60;99.90
3944;DHT22;1986;52.546;13.428;2023-12-14T11:40:49;6.50;99.90
3944;DHT22;1986;52.546;13.428;2023-12-14T11:43:16;6.40;99.90
3944;DHT22;1986;52.546;13.428;2023-12-14T11:45:45;6.30;99.90
3944;DHT22;1986;52.546;13.428;2023-12-14T11:48:13;6.30;99.90
3944;DHT22;1986;52.546;13.428;2023-12-14T11:50:41;6.30;99.90
3944;DHT22;1986;52.546;13.428;2023-12-14T11:53:25;6.40;99.90
3944;DHT22;1986;52.546;13.428;2023-12-14T11:55:53;6.50;99.90
3944;DHT22;1986;52.546;13.428;2023-12-14T11:58:20;6.50;99.90
3944;DHT22;1986;52.546;13.428;2023-12-14T12:00:47;6.50;99.90
3944;DHT22;1986;52.546;13.428;2023-12-14T12:03:15;6.60;99.90
3944;DHT22;1986;52.546;13.428;2023-12-14T12:05:45;6.70;99.90
3944;DHT22;1986;52.546;13.428;2023-12-14T12:08:13;6.60;99.90
3944;DHT22;1986;52.546;13.428;2023-12-14T12:10:45;6.60;99.90
3944;DHT22;1986;52.546;13.428;2023-12-14T12:13:16;6.60;99.90
3944;DHT22;1986;52.546;13.428;2023-12-14T12:15:48;6.60;99.90
3944;DHT22;1986;52.546;13.428;2023-12-14T12:18:17;6.50;99.90
3944;DHT22;1986;52.546;13.428;2023-12-14T12:20:53;6.50;99.90
3944;DHT22;1986;52.546;13.428;2023-12-14T12:23:20;6.60;99.90
3944;DHT22;1986;52.546;13.428;2023-12-14T12:25:49;6.60;99.90
3944;DHT22;1986;52.546;13.428;2023-12-14T12:28:16;6.60;99.90
3944;DHT22;1986;52.546;13.428;2023-12-14T12:30:43;6.50;99.90
3944;DHT22;1986;52.546;13.428;2023-12-14T12:33:12;6.60;99.90
3944;DHT22;1986;52.546;13.428;2023-12-14T12:35:43;6.60;99.90
3944;DHT22;1986;52.546;13.428;2023-12-14T12:38:10;6.60;99.90
3944;DHT22;1986;52.546;13.428;2023-12-14T12:40:38;6.60;99.90
3944;DHT22;1986;52.546;13.428;2023-12-14T12:43:06;6.60;99.90
3944;DHT22;1986;52.546;13.428;2023-12-14T12:45:36;6.70;99.90
3944;DHT22;1986;52.546;13.428;2023-12-14T12:48:08;6.50;99.90
3944;DHT22;1986;52.546;13.428;2023-12-14T12:50:50;6.50;99.90
3944;DHT22;1986;52.546;13.428;2023-12-14T12:53:17;6.50;99.90
3944;DHT22;1986;52.546;13.428;2023-12-14T12:55:44;6.60;99.90
3944;DHT22;1986;52.546;13.428;2023-12-14T12:58:13;6.50;99.90
3944;DHT22;1986;52.546;13.428;2023-12-14T13:00:40;6.50;99.90
3944;DHT22;1986;52.546;13.428;2023-12-14T13:03:12;6.40;99.90
3944;DHT22;1986;52.546;13.428;2023-12-14T13:05:40;6.50;99.90
3944;DHT22;1986;52.546;13.428;2023-12-14T13:08:21;6.60;99.90
3944;DHT22;1986;52.546;13.428;2023-12-14T13:10:50;6.50;99.90
3944;DHT22;1986;52.546;13.428;2023-12-14T13:13:18;6.50;99.90
3944;DHT22;1986;52.546;13.428;2023-12-14T13:15:46;6.40;99.90
3944;DHT22;1986;52.546;13.428;2023-12-14T13:18:13;6.40;99.90
3944;DHT22;1986;52.546;13.428;2023-12-14T13:20:42;6.50;99.90
3944;DHT22;1986;52.546;13.428;2023-12-14T13:23:09;6.50;99.90
3944;DHT22;1986;52.546;13.428;2023-12-14T13:25:40;6.50;99.90
3944;DHT22;1986;52.546;13.428;2023-12-14T13:28:07;6.70;99.90
3944;DHT22;1986;52.546;13.428;2023-12-14T13:30:42;6.60;99.90
3944;DHT22;1986;52.546;13.428;2023-12-14T13:33:09;6.60;99.90
3944;DHT22;1986;52.546;13.428;2023-12-14T13:35:37;6.50;99.90
3944;DHT22;1986;52.546;13.428;2023-12-14T13:38:04;6.50;99.90
3944;DHT22;1986;52.546;13.428;2023-12-14T13:40:45;6.70;99.90
3944;DHT22;1986;52.546;13.428;2023-12-14T13:43:12;6.70;99.90
3944;DHT22;1986;52.546;13.428;2023-12-14T13:45:40;6.70;99.90
3944;DHT22;1986;52.546;13.428;2023-12-14T13:48:07;6.80;99.90
3944;DHT22;1986;52.546;13.428;2023-12-14T13:50:35;6.70;99.90
3944;DHT22;1986;52.546;13.428;2023-12-14T13:53:03;6.70;99.90
3944;DHT22;1986;52.546;13.428;2023-12-14T13:55:30;6.60;99.90
3944;DHT22;1986;52.546;13.428;2023-12-14T13:57:58;6.60;99.90
3944;DHT22;1986;52.546;13.428;2023-12-14T14:00:27;6.50;99.90
3944;DHT22;1986;52.546;13.428;2023-12-14T14:02:55;6.50;99.90
3944;DHT22;1986;52.546;13.428;2023-12-14T14:05:22;6.40;99.90
3944;DHT22;1986;52.546;13.428;2023-12-14T14:07:50;6.40;99.90
3944;DHT22;1986;52.546;13.428;2023-12-14T14:10:17;6.40;99.90
3944;DHT22;1986;52.546;13.428;2023-12-14T14:12:45;6.60;99.90
3944;DHT22;1986;52.546;13.428;2023-12-14T14:15:12;6.70;99.90
3944;DHT22;1986;52.546;13.428;2023-12-14T14:17:39;6.80;99.90
3944;DHT22;1986;52.546;13.428;2023-12-14T14:20:11;6.80;99.90
3944;DHT22;1986;52.546;13.428;2023-12-14T14:22:39;6.70;99.90
3944;DHT22;1986;52.546;13.428;2023-12-14T14:25:06;6.70;99.90
3944;DHT22;1986;52.546;13.428;2023-12-14T14:27:34;6.70;99.90
3944;DHT22;1986;52.546;13.428;2023-12-14T14:30:02;6.60;99.90
3944;DHT22;1986;52.546;13.428;2023-12-14T14:32:29;6.60;99.90
3944;DHT22;1986;52.546;13.428;2023-12-14T14:34:57;6.60;99.90
3944;DHT22;1986;52.546;13.428;2023-12-14T14:37:28;6.60;99.90
3944;DHT22;1986;52.546;13.428;2023-12-14T14:39:55;6.40;99.90
3944;DHT22;1986;52.546;13.428;2023-12-14T14:42:22;6.20;99.90
3944;DHT22;1986;52.546;13.428;2023-12-14T14:44:57;6.20;99.90
3944;DHT22;1986;52.546;13.428;2023-12-14T14:47:25;6.20;99.90
3944;DHT22;1986;52.546;13.428;2023-12-14T14:50:02;6.10;99.90
3944;DHT22;1986;52.546;13.428;2023-12-14T14:52:42;6.10;99.90
3944;DHT22;1986;52.546;13.428;2023-12-14T14:55:16;6.00;99.90
3944;DHT22;1986;52.546;13.428;2023-12-14T14:57:44;6.00;99.90
3944;DHT22;1986;52.546;13.428;2023-12-14T15:00:11;6.00;99.90
3944;DHT22;1986;52.546;13.428;2023-12-14T15:02:42;6.00;99.90
3944;DHT22;1986;52.546;13.428;2023-12-14T15:05:14;6.10;99.90
3944;DHT22;1986;52.546;13.428;2023-12-14T15:07:43;6.10;99.90
3944;DHT22;1986;52.546;13.428;2023-12-14T15:10:12;6.10;99.90
3944;DHT22;1986;52.546;13.428;2023-12-14T15:12:40;6.00;99.90
3944;DHT22;1986;52.546;13.428;2023-12-14T15:15:08;6.00;99.90
3944;DHT22;1986;52.546;13.428;2023-12-14T15:17:36;6.00;99.90
3944;DHT22;1986;52.546;13.428;2023-12-14T15:20:05;6.00;99.90
3944;DHT22;1986;52.546;13.428;2023-12-14T15:22:35;6.00;99.90
3944;DHT22;1986;52.546;13.428;2023-12-14T15:25:05;6.00;99.90
3944;DHT22;1986;52.546;13.428;2023-12-14T15:27:32;6.10;99.90
3944;DHT22;1986;52.546;13.428;2023-12-14T15:29:59;6.10;99.90
3944;DHT22;1986;52.546;13.428;2023-12-14T15:32:26;6.20;99.90
3944;DHT22;1986;52.546;13.428;2023-12-14T15:34:53;6.10;99.90
3944;DHT22;1986;52.546;13.428;2023-12-14T15:37:20;6.20;99.90
3944;DHT22;1986;52.546;13.428;2023-12-14T15:39:47;6.20;99.90
3944;DHT22;1986;52.546;13.428;2023-12-14T15:42:19;6.10;99.90
3944;DHT22;1986;52.546;13.428;2023-12-14T15:44:46;6.10;99.90
3944;DHT22;1986;52.546;13.428;2023-12-14T15:47:14;6.10;99.90
3944;DHT22;1986;52.546;13.428;2023-12-14T15:49:42;6.00;99.90
3944;DHT22;1986;52.546;13.428;2023-12-14T15:52:09;6.00;99.90
3944;DHT22;1986;52.546;13.428;2023-12-14T15:54:36;6.00;99.90
3944;DHT22;1986;52.546;13.428;2023-12-14T15:57:04;6.00;99.90
3944;DHT22;1986;52.546;13.428;2023-12-14T15:59:37;5.90;99.90
3944;DHT22;1986;52.546;13.428;2023-12-14T16:02:05;5.90;99.90
3944;DHT22;1986;52.546;13.428;2023-12-14T16:04:35;6.00;99.90
3944;DHT22;1986;52.546;13.428;2023-12-14T16:07:03;6.00;99.90
3944;DHT22;1986;52.546;13.428;2023-12-14T16:09:30;6.00;99.90
3944;DHT22;1986;52.546;13.428;2023-12-14T16:11:58;6.00;99.90